Time;durP1;ratioP1;P1;durP2;ratioP2;P2;SDS_P1;SDS_P2;PMS_P1;PMS_P2;Temp;Humidity;BMP_temperature;BMP_pressure;BME280_temperature;BME280_humidity;BME280_pressure;Samples;Min_cycle;Max_cycle;Signal;HPM_P1;HPM_P2
2021/08/23 04:54:07;;;;;;;6.68;2.40;;;21.00;70.00;;;;;;5826440;23;21356;-80
2021/08/23 04:56:33;;;;;;;6.35;3.20;;;21.40;69.40;;;;;;4955090;28;20071;-79
2021/08/23 04:58:58;;;;;;;5.53;2.53;;;21.60;67.70;;;;;;4955358;28;20113;-80
2021/08/23 05:01:24;;;;;;;5.30;2.97;;;21.80;66.50;;;;;;4971504;28;20039;-78
2021/08/23 05:03:50;;;;;;;5.53;2.80;;;22.00;65.40;;;;;;4972672;28;20084;-82
2021/08/23 05:06:16;;;;;;;5.25;3.05;;;22.20;65.40;;;;;;4971520;28;20098;-82
2021/08/23 05:08:42;;;;;;;5.97;2.70;;;22.50;65.00;;;;;;4972677;28;20049;-84
2021/08/23 05:11:08;;;;;;;6.70;2.80;;;22.70;65.00;;;;;;4972594;28;20031;-83
2021/08/23 05:13:35;;;;;;;3.67;2.53;;;22.80;64.50;;;;;;4955356;28;20034;-82
2021/08/23 05:16:01;;;;;;;5.65;2.40;;;23.10;64.50;;;;;;4972594;28;20042;-83
2021/08/23 05:18:27;;;;;;;4.63;2.42;;;23.30;63.60;;;;;;4972244;28;20149;-83
2021/08/23 05:20:53;;;;;;;5.50;2.50;;;23.40;62.70;;;;;;4971124;28;20652;-83
2021/08/23 05:23:19;;;;;;;4.03;2.38;;;23.60;62.10;;;;;;4971183;28;20212;-83
2021/08/23 05:25:44;;;;;;;4.75;2.45;;;23.80;62.00;;;;;;4972845;28;20169;-83
2021/08/23 05:28:11;;;;;;;6.35;2.20;;;24.00;62.50;;;;;;4971517;28;20501;-84
2021/08/23 05:30:37;;;;;;;4.82;2.35;;;24.20;62.20;;;;;;4972253;28;20042;-83
2021/08/23 05:33:03;;;;;;;3.47;2.30;;;24.30;62.00;;;;;;4972039;28;20109;-83
2021/08/23 05:35:29;;;;;;;4.13;2.30;;;24.50;60.60;;;;;;4971232;28;20031;-83
2021/08/23 05:37:55;;;;;;;3.80;2.15;;;24.70;60.70;;;;;;4955194;28;20090;-83
2021/08/23 05:40:23;;;;;;;7.03;2.00;;;24.80;59.30;;;;;;4971343;28;20031;-83
2021/08/23 05:42:51;;;;;;;4.82;2.03;;;25.00;59.00;;;;;;4972405;28;20413;-83
2021/08/23 05:45:17;;;;;;;6.28;2.28;;;25.10;58.60;;;;;;4972904;28;20464;-83
2021/08/23 05:47:43;;;;;;;3.83;1.73;;;25.20;58.30;;;;;;4958451;28;20034;-83
2021/08/23 05:50:09;;;;;;;7.18;1.75;;;25.30;56.80;;;;;;4974615;28;20081;-81
2021/08/23 05:52:35;;;;;;;2.40;1.50;;;25.40;57.40;;;;;;4974576;28;20041;-83
2021/08/23 05:55:03;;;;;;;3.30;1.60;;;25.60;58.20;;;;;;4975501;28;20062;-83
2021/08/23 05:57:28;;;;;;;5.68;1.90;;;25.70;56.70;;;;;;4975581;28;20121;-83
2021/08/23 05:59:55;;;;;;;4.20;1.20;;;25.80;56.90;;;;;;4975593;28;20177;-83
2021/08/23 06:02:21;;;;;;;2.70;1.33;;;26.00;56.80;;;;;;4975563;28;20031;-84
2021/08/23 06:04:46;;;;;;;1.67;0.90;;;26.10;55.30;;;;;;4975608;28;20437;-83
2021/08/23 06:07:14;;;;;;;1.95;0.90;;;26.20;54.20;;;;;;4974205;28;20105;-83
2021/08/23 06:09:41;;;;;;;0.82;0.60;;;26.20;52.90;;;;;;4974996;28;20042;-83
2021/08/23 06:12:07;;;;;;;1.58;0.85;;;26.20;52.10;;;;;;4973501;28;20130;-84
2021/08/23 06:14:33;;;;;;;3.22;1.10;;;26.20;52.00;;;;;;4957814;28;20584;-84
2021/08/23 06:16:59;;;;;;;2.85;0.85;;;26.20;52.10;;;;;;4973928;28;20150;-83
2021/08/23 06:19:25;;;;;;;2.00;0.70;;;26.30;52.00;;;;;;4957772;28;20031;-83
2021/08/23 06:21:51;;;;;;;2.35;1.00;;;26.30;51.60;;;;;;4975457;28;20037;-84
2021/08/23 06:24:17;;;;;;;4.65;1.33;;;26.40;51.60;;;;;;4976632;28;20054;-84
2021/08/23 06:26:43;;;;;;;2.65;1.00;;;26.60;51.90;;;;;;4974534;28;20035;-85
2021/08/23 06:29:09;;;;;;;2.20;0.82;;;26.80;52.10;;;;;;4975169;28;20133;-84
2021/08/23 06:31:38;;;;;;;1.13;1.00;;;27.00;51.80;;;;;;4957684;28;20086;-83
2021/08/23 06:34:04;;;;;;;3.65;1.27;;;27.20;51.40;;;;;;4957696;28;20054;-84
2021/08/23 06:36:33;;;;;;;4.32;0.70;;;27.20;51.30;;;;;;4973507;28;20425;-84
2021/08/23 06:38:59;;;;;;;3.38;0.85;;;27.30;50.20;;;;;;4974610;28;20063;-80
2021/08/23 06:41:25;;;;;;;4.80;0.70;;;27.20;49.40;;;;;;4957400;28;20134;-92
2021/08/23 06:43:51;;;;;;;2.40;0.90;;;27.10;49.30;;;;;;4957540;28;20035;-90
2021/08/23 06:46:18;;;;;;;1.40;0.90;;;27.20;49.80;;;;;;4973402;28;20516;-84
2021/08/23 06:48:44;;;;;;;1.50;0.80;;;27.20;50.00;;;;;;4975022;28;20121;-85
2021/08/23 06:51:11;;;;;;;1.52;0.80;;;27.20;49.30;;;;;;4974546;28;20039;-86
2021/08/23 06:53:37;;;;;;;3.10;1.50;;;27.20;49.30;;;;;;4973259;28;20552;-84
2021/08/23 06:56:03;;;;;;;3.10;1.25;;;27.10;49.60;;;;;;4972502;28;20125;-89
2021/08/23 06:58:29;;;;;;;2.67;1.05;;;27.10;50.10;;;;;;4973201;28;20428;-86
2021/08/23 07:00:55;;;;;;;3.08;1.10;;;27.10;50.60;;;;;;4973150;28;20093;-89
2021/08/23 07:03:21;;;;;;;4.13;1.25;;;27.10;50.10;;;;;;4973227;28;20521;-84
2021/08/23 07:05:47;;;;;;;2.08;1.10;;;27.20;49.60;;;;;;4972838;28;20043;-87
2021/08/23 07:08:14;;;;;;;1.95;0.98;;;27.20;48.60;;;;;;4974444;28;20054;-88
2021/08/23 07:10:41;;;;;;;1.58;0.80;;;27.10;48.20;;;;;;4974285;28;20398;-87
2021/08/23 07:13:08;;;;;;;2.85;1.08;;;27.00;48.50;;;;;;4957282;28;20520;-88
2021/08/23 07:15:34;;;;;;;3.33;0.90;;;26.90;48.40;;;;;;4957155;28;20090;-86
2021/08/23 07:18:00;;;;;;;3.75;0.80;;;26.80;48.70;;;;;;4974064;28;20449;-85
2021/08/23 07:20:26;;;;;;;3.22;0.88;;;26.70;48.70;;;;;;4956914;28;20066;-87
2021/08/23 07:22:51;;;;;;;2.78;0.95;;;26.70;50.20;;;;;;4974052;28;20057;-87
2021/08/23 07:25:18;;;;;;;3.85;1.15;;;26.80;49.60;;;;;;4956556;28;20098;-92
2021/08/23 07:27:44;;;;;;;4.05;1.10;;;26.80;49.50;;;;;;4957279;28;20461;-90
2021/08/23 07:30:10;;;;;;;5.07;1.25;;;27.00;50.80;;;;;;4956772;28;20433;-91
2021/08/23 07:32:36;;;;;;;2.47;0.93;;;27.00;49.90;;;;;;4975178;28;20039;-95
2021/08/23 07:35:03;;;;;;;2.58;1.10;;;27.00;50.00;;;;;;4972455;28;20038;-92
2021/08/23 07:37:32;;;;;;;3.38;0.90;;;27.00;49.80;;;;;;4975009;28;20050;-89
2021/08/23 07:40:54;;;;;;;5.63;1.13;;;27.00;49.80;;;;;;4982138;28;20015;-96
2021/08/23 07:55:41;;;;;;;2.00;0.68;;;26.20;49.50;;;;;;4911474;29;20139;-91
2021/08/23 07:58:07;;;;;;;1.90;1.00;;;26.00;49.80;;;;;;4915020;29;20075;-90
2021/08/23 08:00:33;;;;;;;0.85;0.85;;;25.90;50.20;;;;;;4914536;29;20064;-90
2021/08/23 08:03:02;;;;;;;1.65;1.00;;;25.90;50.60;;;;;;4916819;29;20040;-95
2021/08/23 08:05:37;;;;;;;1.38;0.73;;;25.80;50.30;;;;;;4916183;29;20032;-94
2021/08/23 08:08:13;;;;;;;2.80;0.70;;;25.60;50.60;;;;;;5033537;23;20048;-92
2021/08/23 08:10:42;;;;;;;2.22;0.85;;;25.70;50.60;;;;;;4918432;29;20066;-93
2021/08/23 08:13:08;;;;;;;2.17;0.70;;;25.70;50.90;;;;;;4919232;29;20075;-94
2021/08/23 08:15:38;;;;;;;2.05;1.05;;;25.60;50.50;;;;;;4934395;29;20108;-91
2021/08/23 08:18:04;;;;;;;3.22;0.70;;;25.60;50.40;;;;;;4934911;29;20114;-94
2021/08/23 08:20:31;;;;;;;0.70;0.70;;;25.60;50.80;;;;;;4934586;29;20474;-89
2021/08/23 08:22:59;;;;;;;3.08;0.90;;;25.50;49.90;;;;;;4933687;29;20148;-92
2021/08/23 08:25:45;;;;;;;0.80;0.70;;;25.60;50.70;;;;;;4918041;29;20491;-92
2021/08/23 08:28:12;;;;;;;1.45;0.60;;;25.50;49.90;;;;;;4933364;29;20039;-87
2021/08/23 08:30:38;;;;;;;3.85;0.80;;;25.40;49.90;;;;;;4917613;29;20039;-78
2021/08/23 08:33:04;;;;;;;4.18;1.10;;;25.30;50.10;;;;;;4934472;29;20043;-80
2021/08/23 08:35:31;;;;;;;2.45;0.70;;;25.20;51.30;;;;;;4934404;29;20134;-81
2021/08/23 08:37:57;;;;;;;2.05;0.70;;;25.10;50.90;;;;;;4934477;29;20038;-81
2021/08/23 08:40:24;;;;;;;2.47;0.70;;;25.10;51.30;;;;;;4933379;29;20118;-79
2021/08/23 08:42:50;;;;;;;1.75;0.60;;;25.10;50.90;;;;;;4933221;29;20442;-82
2021/08/23 08:45:16;;;;;;;1.23;0.80;;;25.10;50.70;;;;;;4934510;29;20032;-81
2021/08/23 08:47:44;;;;;;;0.70;0.70;;;25.10;50.20;;;;;;4934381;29;20039;-82
2021/08/23 08:50:14;;;;;;;1.17;0.80;;;25.10;50.90;;;;;;4917432;29;20409;-79
2021/08/23 08:52:42;;;;;;;43.97;3.35;;;25.00;50.90;;;;;;4934494;29;20067;-79
2021/08/23 08:55:08;;;;;;;1.58;0.65;;;25.00;52.30;;;;;;4934407;29;20032;-82
2021/08/23 08:57:34;;;;;;;1.83;0.82;;;25.10;51.30;;;;;;4933280;29;20035;-84
2021/08/23 09:00:00;;;;;;;2.53;0.77;;;25.10;51.90;;;;;;4934791;29;20044;-84
2021/08/23 09:02:26;;;;;;;3.53;0.90;;;25.10;51.20;;;;;;4933933;29;20024;-84
2021/08/23 09:04:54;;;;;;;1.70;0.88;;;25.10;50.30;;;;;;4934284;29;20122;-85
2021/08/23 09:07:20;;;;;;;2.50;0.70;;;25.00;50.40;;;;;;4932832;29;20056;-82
2021/08/23 09:09:46;;;;;;;2.42;0.80;;;25.00;50.00;;;;;;4934296;29;20573;-83
2021/08/23 09:12:14;;;;;;;3.03;0.70;;;24.90;50.10;;;;;;4932970;29;20040;-82
2021/08/23 09:14:54;;;;;;;3.67;0.93;;;24.90;50.80;;;;;;4934118;29;20110;-84
2021/08/23 09:17:26;;;;;;;0.98;0.85;;;24.90;50.50;;;;;;4932861;29;20039;-80
2021/08/23 09:20:00;;;;;;;1.65;1.00;;;24.80;50.00;;;;;;4935188;29;20514;-84
2021/08/23 09:22:26;;;;;;;3.15;0.85;;;24.80;50.30;;;;;;4936538;29;20502;-82
2021/08/23 09:24:53;;;;;;;3.58;1.05;;;24.70;49.90;;;;;;4937672;29;20410;-82
2021/08/23 09:27:19;;;;;;;3.13;0.85;;;24.60;49.70;;;;;;4936355;29;20035;-82
2021/08/23 09:29:59;;;;;;;2.50;1.15;;;24.60;50.40;;;;;;4937661;29;20100;-87
2021/08/23 09:32:34;;;;;;;3.70;0.80;;;24.50;51.00;;;;;;4937674;29;20123;-84
2021/08/23 09:35:01;;;;;;;1.42;0.88;;;24.60;52.30;;;;;;4936428;29;20054;-83
2021/08/23 09:37:29;;;;;;;4.70;1.00;;;24.60;52.80;;;;;;4920468;29;20554;-85
2021/08/23 09:39:56;;;;;;;2.13;0.88;;;24.60;53.10;;;;;;4936449;29;20071;-84
2021/08/23 09:42:24;;;;;;;2.90;0.70;;;24.60;53.40;;;;;;4936267;29;20042;-85
2021/08/23 09:44:53;;;;;;;1.83;0.80;;;24.60;53.60;;;;;;4937430;29;20031;-92
2021/08/23 09:47:28;;;;;;;2.15;0.70;;;24.60;53.10;;;;;;4920325;29;20039;-88
2021/08/23 09:49:54;;;;;;;0.50;0.50;;;24.60;53.40;;;;;;4940081;29;20039;-90
2021/08/23 09:52:32;;;;;;;1.25;0.65;;;24.60;53.90;;;;;;4925582;29;20098;-90
2021/08/23 09:55:04;;;;;;;2.28;1.10;;;24.40;53.20;;;;;;4926702;29;20051;-93
2021/08/23 09:57:33;;;;;;;1.13;0.82;;;24.50;53.90;;;;;;4938952;29;20102;-93
2021/08/23 10:00:00;;;;;;;3.80;1.00;;;24.40;54.50;;;;;;4922868;29;20039;-89
2021/08/23 10:02:27;;;;;;;4.78;1.20;;;24.40;54.50;;;;;;4921232;29;20048;-94
2021/08/23 10:04:59;;;;;;;3.10;1.00;;;24.50;54.60;;;;;;4936358;29;20031;-92
2021/08/23 10:07:27;;;;;;;2.45;1.27;;;24.40;54.20;;;;;;4920119;29;20054;-91
2021/08/23 10:09:59;;;;;;;3.70;1.30;;;24.40;54.50;;;;;;4935798;29;20039;-90
2021/08/23 10:12:25;;;;;;;2.55;1.40;;;24.40;55.00;;;;;;4937067;29;20134;-92
2021/08/23 10:14:51;;;;;;;6.85;1.10;;;24.20;54.30;;;;;;4937736;29;20106;-91
2021/08/23 10:17:17;;;;;;;2.13;1.00;;;24.20;53.90;;;;;;4920902;29;20087;-92
2021/08/23 10:19:45;;;;;;;4.03;1.20;;;24.20;53.80;;;;;;4920710;29;20451;-92
2021/08/23 10:22:13;;;;;;;3.03;1.00;;;24.20;54.90;;;;;;4920655;29;20454;-92
2021/08/23 10:24:41;;;;;;;2.83;1.00;;;24.20;53.50;;;;;;4936514;29;20495;-92
2021/08/23 10:27:07;;;;;;;2.50;0.93;;;24.20;54.20;;;;;;4936458;29;20459;-91
2021/08/23 10:29:39;;;;;;;3.70;1.17;;;24.20;54.50;;;;;;4937309;29;20161;-91
2021/08/23 10:32:10;;;;;;;4.50;0.85;;;24.30;53.70;;;;;;4919293;29;20395;-91
2021/08/23 10:34:38;;;;;;;1.15;0.80;;;24.40;53.70;;;;;;4920333;29;20035;-91
2021/08/23 10:37:23;;;;;;;1.05;0.77;;;24.40;52.90;;;;;;4920039;29;20050;-91
2021/08/23 10:40:00;;;;;;;2.28;0.90;;;24.40;53.50;;;;;;4942045;29;20050;-91
2021/08/23 10:42:36;;;;;;;1.30;0.80;;;24.50;53.10;;;;;;4928829;29;20051;-91
2021/08/23 10:45:11;;;;;;;2.47;0.80;;;24.40;53.80;;;;;;4932032;29;20055;-91
2021/08/23 10:47:37;;;;;;;1.60;0.95;;;24.50;53.80;;;;;;4936710;29;20098;-91
2021/08/23 10:50:04;;;;;;;1.67;1.00;;;24.50;54.10;;;;;;4937403;29;20059;-92
2021/08/23 10:52:36;;;;;;;1.60;0.90;;;24.50;53.50;;;;;;4937327;29;20086;-91
2021/08/23 10:55:07;;;;;;;3.45;1.30;;;24.50;53.50;;;;;;4935694;29;20039;-91
2021/08/23 10:57:33;;;;;;;4.32;0.73;;;24.50;54.10;;;;;;4936338;29;20043;-91
2021/08/23 11:00:11;;;;;;;2.30;0.70;;;24.30;53.30;;;;;;4936325;29;20044;-92
2021/08/23 11:02:38;;;;;;;1.10;0.82;;;24.30;53.80;;;;;;4936428;29;20035;-92
2021/08/23 11:05:09;;;;;;;0.73;0.70;;;24.30;52.30;;;;;;4935018;29;20039;-92
2021/08/23 11:07:37;;;;;;;1.65;0.60;;;24.20;52.80;;;;;;4919275;29;20053;-93
2021/08/23 11:10:09;;;;;;;2.90;0.98;;;24.10;52.30;;;;;;4936134;29;20046;-91
2021/08/23 11:12:47;;;;;;;2.88;0.90;;;24.10;52.60;;;;;;4934758;29;20032;-91
2021/08/23 11:15:18;;;;;;;1.33;0.70;;;24.10;53.10;;;;;;4934887;29;20127;-92
2021/08/23 11:17:49;;;;;;;1.85;0.98;;;24.10;53.30;;;;;;4919148;29;20035;-92
2021/08/23 11:20:25;;;;;;;0.73;0.70;;;24.10;52.40;;;;;;4935914;29;20032;-92
2021/08/23 11:22:56;;;;;;;2.90;1.00;;;24.10;52.90;;;;;;4935890;29;20039;-92
2021/08/23 11:25:31;;;;;;;2.13;1.20;;;24.00;53.00;;;;;;4935776;29;20130;-92
2021/08/23 11:28:01;;;;;;;3.45;1.15;;;24.00;53.20;;;;;;4935894;29;20039;-92
2021/08/23 11:30:32;;;;;;;4.55;1.02;;;24.00;53.00;;;;;;4936299;29;20523;-92
2021/08/23 11:32:58;;;;;;;1.85;1.23;;;24.00;53.20;;;;;;4943610;29;20036;-93
2021/08/23 11:35:24;;;;;;;1.52;0.95;;;24.00;53.40;;;;;;4942734;29;20036;-89
2021/08/23 11:38:03;;;;;;;1.33;0.82;;;24.00;53.40;;;;;;4939184;29;20043;-81
2021/08/23 11:40:30;;;;;;;2.90;1.02;;;24.00;53.80;;;;;;4935341;29;20044;-80
2021/08/23 11:42:58;;;;;;;1.92;0.98;;;24.00;53.00;;;;;;4934885;29;20042;-82
2021/08/23 11:45:30;;;;;;;2.50;1.27;;;23.90;52.80;;;;;;4935272;29;20038;-80
2021/08/23 11:47:57;;;;;;;1.50;1.13;;;23.90;53.70;;;;;;4935165;29;20039;-79
2021/08/23 11:50:23;;;;;;;3.72;1.13;;;23.90;53.80;;;;;;4934985;29;20136;-78
2021/08/23 11:52:50;;;;;;;3.95;1.00;;;23.90;54.40;;;;;;4935000;29;20126;-77
2021/08/23 11:55:30;;;;;;;3.00;1.40;;;23.90;54.20;;;;;;4934868;29;20047;-77
2021/08/23 11:58:02;;;;;;;3.15;1.38;;;23.90;53.80;;;;;;4935033;29;20442;-78
2021/08/23 12:00:29;;;;;;;1.23;0.90;;;23.90;53.10;;;;;;4933721;29;20082;-79
2021/08/23 12:03:21;;;;;;;2.78;1.02;;;23.90;53.90;;;;;;4935070;29;20094;-81
2021/08/23 12:05:49;;;;;;;2.30;1.08;;;23.90;53.70;;;;;;4933121;29;20051;-80
2021/08/23 12:08:26;;;;;;;1.13;0.95;;;23.90;52.60;;;;;;4933411;29;20437;-81
2021/08/23 12:10:53;;;;;;;2.05;0.80;;;23.90;52.90;;;;;;4934796;29;20050;-80
2021/08/23 12:13:22;;;;;;;3.45;1.13;;;24.00;53.00;;;;;;4935117;29;20478;-78
2021/08/23 12:16:12;;;;;;;2.45;0.90;;;24.00;52.20;;;;;;4933473;29;20086;-77
2021/08/23 12:18:44;;;;;;;2.45;1.35;;;24.00;52.10;;;;;;4929442;29;20086;-78
2021/08/23 12:21:32;;;;;;;1.50;0.95;;;24.10;52.80;;;;;;4934351;29;20632;-78
2021/08/23 12:24:03;;;;;;;4.55;1.00;;;24.10;52.90;;;;;;4934658;29;20355;-86
2021/08/23 12:26:49;;;;;;;3.38;1.17;;;24.10;52.20;;;;;;4933957;29;20039;-83
2021/08/23 12:29:19;;;;;;;2.35;1.02;;;24.10;52.20;;;;;;4918218;29;20036;-84
2021/08/23 12:31:52;;;;;;;2.28;0.93;;;24.00;52.20;;;;;;4934641;29;20043;-84
2021/08/23 12:34:20;;;;;;;1.88;1.10;;;24.10;52.10;;;;;;4933540;29;20048;-85
2021/08/23 12:36:46;;;;;;;2.03;0.82;;;24.10;51.70;;;;;;4933162;29;20043;-80
2021/08/23 12:39:13;;;;;;;3.25;1.08;;;24.10;51.60;;;;;;4934105;29;20032;-85
2021/08/23 12:41:41;;;;;;;1.73;1.10;;;24.00;51.10;;;;;;4932834;29;20047;-84
2021/08/23 12:44:07;;;;;;;2.42;1.10;;;24.00;52.50;;;;;;4932905;29;20040;-80
2021/08/23 12:46:33;;;;;;;3.28;0.90;;;24.00;52.80;;;;;;4934669;29;20071;-80
2021/08/23 12:48:59;;;;;;;1.15;0.63;;;24.00;53.00;;;;;;4933456;29;20082;-80
2021/08/23 12:51:25;;;;;;;3.05;0.85;;;24.00;53.10;;;;;;4934434;29;20063;-87
2021/08/23 12:53:51;;;;;;;2.13;1.10;;;24.00;52.70;;;;;;4934488;29;20040;-85
2021/08/23 12:56:17;;;;;;;2.38;1.08;;;24.00;52.30;;;;;;4936723;29;20046;-86
2021/08/23 12:58:43;;;;;;;2.63;0.98;;;23.90;52.00;;;;;;4921134;29;20039;-88
2021/08/23 13:01:12;;;;;;;2.40;0.85;;;23.90;52.50;;;;;;4937086;29;20044;-86
2021/08/23 13:03:41;;;;;;;4.82;1.00;;;23.90;52.80;;;;;;4937105;29;20046;-89
2021/08/23 13:06:07;;;;;;;1.17;1.08;;;23.90;53.30;;;;;;4936952;29;20521;-90
2021/08/23 13:08:34;;;;;;;2.60;1.20;;;23.90;52.90;;;;;;4920773;29;20477;-90
2021/08/23 13:11:00;;;;;;;3.90;1.02;;;23.90;52.30;;;;;;4937160;29;20048;-88
2021/08/23 13:13:26;;;;;;;3.72;1.05;;;23.90;52.40;;;;;;4937033;29;20182;-82
2021/08/23 13:15:52;;;;;;;2.80;1.02;;;23.80;52.00;;;;;;4941476;29;20083;-85
2021/08/23 13:18:21;;;;;;;2.50;0.90;;;23.80;51.90;;;;;;4940069;29;20462;-87
2021/08/23 13:20:47;;;;;;;3.65;0.80;;;23.70;52.30;;;;;;4939347;29;20040;-84
2021/08/23 13:23:14;;;;;;;2.28;1.08;;;23.80;53.10;;;;;;4936484;29;20040;-84
2021/08/23 13:25:43;;;;;;;1.92;0.77;;;23.70;53.00;;;;;;4936533;29;20453;-84
2021/08/23 13:28:11;;;;;;;3.88;0.85;;;23.70;53.00;;;;;;4936390;29;20601;-84
2021/08/23 13:30:37;;;;;;;1.38;0.80;;;23.70;52.90;;;;;;4937700;29;20067;-84
2021/08/23 13:33:04;;;;;;;1.30;0.98;;;23.70;53.50;;;;;;4936462;29;20039;-84
2021/08/23 13:35:34;;;;;;;1.45;0.75;;;23.60;53.60;;;;;;4920450;29;20032;-85
2021/08/23 13:38:02;;;;;;;1.50;0.70;;;23.60;54.20;;;;;;4921038;29;20067;-82
2021/08/23 13:40:30;;;;;;;7.55;0.98;;;23.60;54.30;;;;;;4936517;29;20040;-82
2021/08/23 13:42:56;;;;;;;3.70;0.80;;;23.70;54.20;;;;;;4937457;29;20032;-82
2021/08/23 13:45:22;;;;;;;0.77;0.60;;;23.70;54.70;;;;;;4920378;29;20126;-83
2021/08/23 13:47:48;;;;;;;1.92;0.90;;;23.70;55.00;;;;;;4920198;29;20226;-81
2021/08/23 13:50:14;;;;;;;3.10;0.90;;;23.70;54.90;;;;;;4937269;29;20043;-80
2021/08/23 13:52:40;;;;;;;2.08;1.23;;;23.70;55.20;;;;;;4936233;29;20426;-82
2021/08/23 13:55:06;;;;;;;4.47;1.02;;;23.70;54.80;;;;;;4936673;29;20044;-84
2021/08/23 13:57:34;;;;;;;4.63;1.00;;;23.80;55.10;;;;;;4935960;29;20043;-86
2021/08/23 14:00:01;;;;;;;3.88;1.02;;;23.80;54.80;;;;;;4935710;29;20044;-86
2021/08/23 14:02:28;;;;;;;4.45;1.20;;;23.70;54.70;;;;;;4935926;29;20047;-85
2021/08/23 14:04:54;;;;;;;2.90;1.13;;;23.70;54.70;;;;;;4937016;29;20039;-91
2021/08/23 14:07:21;;;;;;;5.47;0.98;;;23.70;54.60;;;;;;4936508;29;20062;-85
2021/08/23 14:09:48;;;;;;;1.80;1.10;;;23.70;55.50;;;;;;4937417;29;20071;-89
2021/08/23 14:12:14;;;;;;;2.70;1.25;;;23.70;54.60;;;;;;4938551;29;20538;-84
2021/08/23 14:14:40;;;;;;;4.18;1.27;;;23.70;54.40;;;;;;4935821;29;20112;-87
2021/08/23 14:17:08;;;;;;;3.65;0.80;;;23.60;54.50;;;;;;4919938;29;20051;-87
2021/08/23 14:19:36;;;;;;;3.63;1.00;;;23.70;54.10;;;;;;4936861;29;20494;-81
2021/08/23 14:22:03;;;;;;;4.22;1.23;;;23.70;54.50;;;;;;4936938;29;20048;-84
2021/08/23 14:24:29;;;;;;;3.22;1.02;;;23.70;54.80;;;;;;4919717;29;20050;-83
2021/08/23 14:26:55;;;;;;;4.63;0.90;;;23.70;53.80;;;;;;4935417;29;20070;-80
2021/08/23 14:29:21;;;;;;;1.77;1.00;;;23.70;54.50;;;;;;4935272;29;20055;-81
2021/08/23 14:31:48;;;;;;;3.30;1.02;;;23.70;54.80;;;;;;4936632;29;20094;-79
2021/08/23 14:34:14;;;;;;;2.05;0.85;;;23.80;55.30;;;;;;4919391;29;20418;-82
2021/08/23 14:36:41;;;;;;;3.33;1.00;;;23.80;54.10;;;;;;4935114;29;20044;-81
2021/08/23 14:39:07;;;;;;;1.98;1.17;;;23.80;53.20;;;;;;4935209;29;20122;-79
2021/08/23 14:41:33;;;;;;;3.58;1.08;;;23.80;54.10;;;;;;4935685;29;20051;-84
2021/08/23 14:43:59;;;;;;;2.53;0.85;;;23.80;55.10;;;;;;4935296;29;20088;-78
2021/08/23 14:46:25;;;;;;;2.55;1.15;;;23.80;54.60;;;;;;4918406;29;20050;-78
2021/08/23 14:48:52;;;;;;;2.53;1.00;;;23.90;55.50;;;;;;4935028;29;20039;-78
2021/08/23 14:51:18;;;;;;;1.60;1.33;;;23.80;54.10;;;;;;4935821;29;20086;-82
2021/08/23 14:53:44;;;;;;;2.92;1.65;;;23.80;54.20;;;;;;4919213;29;20130;-84
2021/08/23 14:56:11;;;;;;;1.95;1.75;;;23.80;53.60;;;;;;4934899;29;20094;-81
2021/08/23 14:58:37;;;;;;;1.98;0.73;;;23.70;53.40;;;;;;4935988;29;20036;-80
2021/08/23 15:01:04;;;;;;;4.30;1.00;;;23.70;54.10;;;;;;4934780;29;20074;-79
2021/08/23 15:03:30;;;;;;;1.45;0.80;;;23.60;54.60;;;;;;4935864;29;20134;-79
2021/08/23 15:05:56;;;;;;;2.10;0.90;;;23.60;54.50;;;;;;4936040;29;20031;-79
2021/08/23 15:08:22;;;;;;;3.17;0.63;;;23.60;55.40;;;;;;4934653;29;20055;-83
2021/08/23 15:10:52;;;;;;;3.78;1.90;;;23.50;54.20;;;;;;4918838;29;20036;-83
2021/08/23 15:13:21;;;;;;;1.70;1.20;;;23.50;54.30;;;;;;4918881;29;20035;-81
2021/08/23 15:15:48;;;;;;;1.40;1.15;;;23.40;54.40;;;;;;4918526;29;20042;-80
2021/08/23 15:18:14;;;;;;;2.53;1.40;;;23.30;54.80;;;;;;4933964;29;20036;-79
2021/08/23 15:20:44;;;;;;;3.05;0.95;;;23.30;54.60;;;;;;4935605;29;20028;-82
2021/08/23 15:23:13;;;;;;;3.03;1.20;;;23.20;54.50;;;;;;4918479;29;20447;-79
2021/08/23 15:25:39;;;;;;;3.17;1.27;;;23.20;54.40;;;;;;4935774;29;20533;-81
2021/08/23 15:28:08;;;;;;;3.70;1.38;;;23.20;54.10;;;;;;4934333;29;20107;-79
2021/08/23 15:30:34;;;;;;;1.15;0.80;;;23.10;54.30;;;;;;4935334;29;20035;-80
2021/08/23 15:33:07;;;;;;;2.33;1.25;;;23.10;53.70;;;;;;4935078;29;20031;-81
2021/08/23 15:35:37;;;;;;;2.90;1.60;;;23.10;53.20;;;;;;4934086;29;20066;-84
2021/08/23 15:38:04;;;;;;;6.60;1.70;;;23.00;53.60;;;;;;4935257;29;20459;-80
2021/08/23 15:40:30;;;;;;;4.20;1.40;;;23.00;54.00;;;;;;4918191;29;20047;-82
2021/08/23 15:42:58;;;;;;;6.10;2.00;;;22.90;53.60;;;;;;4934079;29;20503;-80
2021/08/23 15:45:25;;;;;;;3.40;1.80;;;22.90;53.90;;;;;;4918020;29;20032;-80
2021/08/23 15:47:51;;;;;;;2.90;1.70;;;22.90;54.20;;;;;;4933766;29;20466;-83
2021/08/23 15:50:17;;;;;;;3.35;2.10;;;22.90;54.40;;;;;;4933995;29;20035;-82
2021/08/23 15:52:43;;;;;;;4.95;1.63;;;22.80;54.10;;;;;;4917883;29;20230;-82
2021/08/23 15:55:10;;;;;;;4.80;2.03;;;22.80;54.50;;;;;;4918457;29;20042;-83
2021/08/23 15:57:36;;;;;;;1.83;1.40;;;22.70;54.50;;;;;;4936744;29;20559;-86
2021/08/23 16:00:09;;;;;;;1.73;1.38;;;22.70;54.80;;;;;;4918431;29;20036;-85
2021/08/23 16:02:44;;;;;;;2.15;1.50;;;22.70;55.10;;;;;;4919996;29;20027;-89
2021/08/23 16:05:11;;;;;;;3.28;1.52;;;22.60;55.20;;;;;;4934764;29;20110;-88
2021/08/23 16:07:41;;;;;;;6.43;2.10;;;22.60;55.70;;;;;;4933789;29;20062;-86
2021/08/23 16:10:13;;;;;;;2.15;1.77;;;22.60;55.70;;;;;;4932919;29;20039;-84
2021/08/23 16:12:40;;;;;;;4.18;1.40;;;22.50;56.60;;;;;;4934182;29;20043;-82
2021/08/23 16:15:07;;;;;;;4.18;1.70;;;22.50;56.30;;;;;;4932796;29;20118;-81
2021/08/23 16:17:37;;;;;;;2.20;1.20;;;22.50;56.50;;;;;;4933956;29;20421;-80
2021/08/23 16:20:04;;;;;;;3.47;1.67;;;22.50;56.60;;;;;;4932575;29;20254;-81
2021/08/23 16:22:30;;;;;;;3.20;2.20;;;22.50;57.00;;;;;;4916840;29;20418;-80
2021/08/23 16:24:56;;;;;;;2.75;1.83;;;22.50;56.90;;;;;;4932525;29;20462;-80
2021/08/23 16:27:22;;;;;;;2.42;1.77;;;22.40;57.10;;;;;;4934171;29;20138;-81
2021/08/23 16:29:49;;;;;;;3.70;1.85;;;22.40;57.20;;;;;;4931514;29;20051;-87
2021/08/23 16:32:15;;;;;;;3.67;1.70;;;22.30;57.30;;;;;;4933925;29;20042;-78
2021/08/23 16:34:41;;;;;;;4.75;1.30;;;22.30;57.30;;;;;;4933851;29;20039;-83
2021/08/23 16:37:07;;;;;;;3.67;1.20;;;22.30;56.90;;;;;;4933714;29;20122;-84
2021/08/23 16:39:33;;;;;;;3.15;1.10;;;22.20;56.80;;;;;;4932693;29;20499;-84
2021/08/23 16:42:00;;;;;;;9.73;4.63;;;22.20;57.30;;;;;;4917799;29;20035;-78
2021/08/23 16:44:27;;;;;;;5.55;3.92;;;22.10;57.30;;;;;;4934311;29;20066;-79
2021/08/23 16:46:54;;;;;;;8.40;2.70;;;22.10;57.50;;;;;;4934320;29;20537;-80
2021/08/23 16:49:20;;;;;;;3.30;1.75;;;22.00;57.50;;;;;;4917196;29;20046;-79
2021/08/23 16:51:48;;;;;;;3.80;3.17;;;22.00;58.10;;;;;;4932747;29;20094;-78
2021/08/23 16:54:15;;;;;;;8.48;3.50;;;22.00;57.80;;;;;;4934280;29;20507;-78
2021/08/23 16:56:41;;;;;;;8.40;2.55;;;22.00;57.90;;;;;;4934030;29;20036;-77
2021/08/23 16:59:07;;;;;;;5.00;2.90;;;21.90;58.20;;;;;;4933971;29;20044;-78
2021/08/23 17:01:33;;;;;;;4.03;2.05;;;21.90;58.30;;;;;;4934191;29;20042;-77
2021/08/23 17:03:59;;;;;;;8.05;3.35;;;21.90;58.10;;;;;;4932842;29;20044;-78
2021/08/23 17:06:25;;;;;;;4.93;2.70;;;21.80;58.70;;;;;;4891617;29;1238877;-81
2021/08/23 17:08:51;;;;;;;5.68;2.60;;;21.70;58.60;;;;;;4919410;29;20035;-78
2021/08/23 17:11:17;;;;;;;4.95;2.67;;;21.70;59.10;;;;;;4933075;29;20422;-77
2021/08/23 17:13:43;;;;;;;6.10;2.40;;;21.70;59.00;;;;;;4932620;29;20032;-78
2021/08/23 17:16:09;;;;;;;4.78;2.10;;;21.60;59.10;;;;;;4934107;29;20048;-80
2021/08/23 17:18:39;;;;;;;5.45;2.20;;;21.60;59.20;;;;;;4932945;29;20130;-85
2021/08/23 17:21:05;;;;;;;5.68;2.17;;;21.60;59.00;;;;;;4932979;29;20463;-83
2021/08/23 17:23:31;;;;;;;3.97;2.10;;;21.60;59.30;;;;;;4932838;29;20070;-79
2021/08/23 17:25:57;;;;;;;3.42;2.10;;;21.50;59.00;;;;;;4933958;29;20067;-79
2021/08/23 17:28:23;;;;;;;4.63;2.15;;;21.50;58.80;;;;;;4934100;29;20027;-82
2021/08/23 17:30:49;;;;;;;7.80;2.08;;;21.50;58.70;;;;;;4932927;29;20036;-81
2021/08/23 17:33:15;;;;;;;4.53;1.95;;;21.50;58.80;;;;;;4932619;29;20032;-85
2021/08/23 17:40:42;;;;;;;;;;;21.40;59.60;;;;;;4918172;29;19929;-81
2021/08/23 17:43:08;;;;;;;3.65;1.90;;;21.40;59.70;;;;;;4936340;29;19914;-83
2021/08/23 17:45:34;;;;;;;7.80;2.15;;;21.40;59.50;;;;;;4936948;29;20506;-79
2021/08/23 17:48:00;;;;;;;8.52;2.72;;;21.40;59.60;;;;;;4925109;29;20134;-80
2021/08/23 17:50:26;;;;;;;5.25;2.28;;;21.30;59.90;;;;;;4926602;29;20024;-81
2021/08/23 17:52:52;;;;;;;6.03;2.53;;;21.30;60.00;;;;;;4923865;29;20038;-80
2021/08/23 17:55:18;;;;;;;5.00;2.60;;;21.30;60.30;;;;;;4930277;29;20482;-81
2021/08/23 17:57:44;;;;;;;4.53;2.00;;;21.30;60.90;;;;;;4927130;29;20032;-81
2021/08/23 18:00:10;;;;;;;5.97;2.50;;;21.20;60.90;;;;;;4927362;29;20035;-81
2021/08/23 18:02:39;;;;;;;4.75;2.38;;;21.20;61.30;;;;;;4924876;29;20126;-81